sensor_id;sensor_type;location;lat;lon;timestamp;P1;durP1;ratioP1;P2;durP2;ratioP2
1753;SDS011;58380;48.312;9.246;2022-09-09T06:40:07;6.68;;;1.70;;
1753;SDS011;58380;48.312;9.246;2022-09-09T06:42:33;3.97;;;1.75;;
1753;SDS011;58380;48.312;9.246;2022-09-09T06:44:58;6.97;;;1.60;;
1753;SDS011;58380;48.312;9.246;2022-09-09T06:47:24;4.57;;;1.30;;
1753;SDS011;58380;48.312;9.246;2022-09-09T06:49:49;4.03;;;1.20;;
1753;SDS011;58380;48.312;9.246;2022-09-09T06:52:15;4.32;;;1.40;;
1753;SDS011;58380;48.312;9.246;2022-09-09T06:54:43;3.50;;;1.33;;
1753;SDS011;58380;48.312;9.246;2022-09-09T06:57:10;3.05;;;1.25;;
1753;SDS011;58380;48.312;9.246;2022-09-09T06:59:35;2.00;;;1.17;;
1753;SDS011;58380;48.312;9.246;2022-09-09T07:02:01;3.43;;;1.47;;
1753;SDS011;58380;48.312;9.246;2022-09-09T07:04:26;3.60;;;1.55;;
1753;SDS011;58380;48.312;9.246;2022-09-09T07:06:52;3.70;;;1.47;;
1753;SDS011;58380;48.312;9.246;2022-09-09T07:09:17;3.63;;;1.10;;
1753;SDS011;58380;48.312;9.246;2022-09-09T07:11:44;5.00;;;1.40;;
1753;SDS011;58380;48.312;9.246;2022-09-09T07:14:18;5.65;;;2.00;;
1753;SDS011;58380;48.312;9.246;2022-09-09T07:16:44;5.05;;;1.50;;
1753;SDS011;58380;48.312;9.246;2022-09-09T07:19:11;2.33;;;1.20;;
1753;SDS011;58380;48.312;9.246;2022-09-09T07:21:39;4.07;;;1.52;;
1753;SDS011;58380;48.312;9.246;2022-09-09T07:24:08;4.07;;;1.30;;
1753;SDS011;58380;48.312;9.246;2022-09-09T07:26:35;3.33;;;1.23;;
1753;SDS011;58380;48.312;9.246;2022-09-09T07:29:02;4.88;;;1.50;;
1753;SDS011;58380;48.312;9.246;2022-09-09T07:31:29;4.28;;;1.73;;
1753;SDS011;58380;48.312;9.246;2022-09-09T07:33:58;4.13;;;1.90;;
1753;SDS011;58380;48.312;9.246;2022-09-09T07:36:26;3.53;;;1.55;;
1753;SDS011;58380;48.312;9.246;2022-09-09T07:38:56;6.80;;;1.88;;
1753;SDS011;58380;48.312;9.246;2022-09-09T07:41:29;5.75;;;2.30;;
1753;SDS011;58380;48.312;9.246;2022-09-09T07:43:59;3.97;;;1.55;;
1753;SDS011;58380;48.312;9.246;2022-09-09T07:46:29;5.63;;;2.00;;
1753;SDS011;58380;48.312;9.246;2022-09-09T07:48:55;6.67;;;1.53;;
1753;SDS011;58380;48.312;9.246;2022-09-09T07:51:24;4.43;;;1.30;;
1753;SDS011;58380;48.312;9.246;2022-09-09T07:54:00;2.80;;;1.30;;
1753;SDS011;58380;48.312;9.246;2022-09-09T07:56:29;2.13;;;1.08;;
1753;SDS011;58380;48.312;9.246;2022-09-09T07:58:57;4.80;;;1.15;;
1753;SDS011;58380;48.312;9.246;2022-09-09T08:01:27;2.58;;;1.02;;
1753;SDS011;58380;48.312;9.246;2022-09-09T08:04:16;4.68;;;1.00;;
1753;SDS011;58380;48.312;9.246;2022-09-09T08:06:48;3.25;;;0.88;;
1753;SDS011;58380;48.312;9.246;2022-09-09T08:09:18;5.25;;;1.17;;
1753;SDS011;58380;48.312;9.246;2022-09-09T08:14:10;4.60;;;1.20;;
1753;SDS011;58380;48.312;9.246;2022-09-09T08:16:38;3.70;;;1.00;;
1753;SDS011;58380;48.312;9.246;2022-09-09T08:19:07;4.35;;;1.10;;
1753;SDS011;58380;48.312;9.246;2022-09-09T08:21:34;3.92;;;1.20;;
1753;SDS011;58380;48.312;9.246;2022-09-09T08:24:03;3.50;;;0.95;;
1753;SDS011;58380;48.312;9.246;2022-09-09T08:26:30;4.40;;;1.40;;
1753;SDS011;58380;48.312;9.246;2022-09-09T08:28:59;5.97;;;1.33;;
1753;SDS011;58380;48.312;9.246;2022-09-09T08:31:28;8.07;;;1.00;;
1753;SDS011;58380;48.312;9.246;2022-09-09T08:33:58;4.68;;;1.27;;
1753;SDS011;58380;48.312;9.246;2022-09-09T08:36:26;3.55;;;0.80;;
1753;SDS011;58380;48.312;9.246;2022-09-09T08:38:55;4.00;;;1.48;;
1753;SDS011;58380;48.312;9.246;2022-09-09T08:50:26;3.78;;;0.98;;
1753;SDS011;58380;48.312;9.246;2022-09-09T08:55:45;5.93;;;1.10;;
1753;SDS011;58380;48.312;9.246;2022-09-09T09:09:01;2.80;;;1.00;;
1753;SDS011;58380;48.312;9.246;2022-09-09T09:11:38;2.80;;;0.90;;
1753;SDS011;58380;48.312;9.246;2022-09-09T09:14:12;3.03;;;0.93;;
1753;SDS011;58380;48.312;9.246;2022-09-09T09:16:50;3.40;;;0.98;;
1753;SDS011;58380;48.312;9.246;2022-09-09T09:19:22;6.32;;;0.90;;
1753;SDS011;58380;48.312;9.246;2022-09-09T09:21:57;2.35;;;0.90;;
1753;SDS011;58380;48.312;9.246;2022-09-09T09:27:11;2.08;;;0.70;;
1753;SDS011;58380;48.312;9.246;2022-09-09T09:29:40;1.88;;;0.73;;
1753;SDS011;58380;48.312;9.246;2022-09-09T09:32:14;4.00;;;0.80;;
1753;SDS011;58380;48.312;9.246;2022-09-09T09:34:53;4.00;;;0.82;;
1753;SDS011;58380;48.312;9.246;2022-09-09T09:37:29;2.78;;;0.80;;
1753;SDS011;58380;48.312;9.246;2022-09-09T09:40:13;4.38;;;0.90;;
1753;SDS011;58380;48.312;9.246;2022-09-09T09:42:55;4.78;;;0.90;;
1753;SDS011;58380;48.312;9.246;2022-09-09T09:45:43;3.60;;;0.95;;
1753;SDS011;58380;48.312;9.246;2022-09-09T09:48:12;6.55;;;0.98;;
1753;SDS011;58380;48.312;9.246;2022-09-09T09:50:52;6.43;;;0.68;;
1753;SDS011;58380;48.312;9.246;2022-09-09T09:53:26;2.63;;;0.73;;
1753;SDS011;58380;48.312;9.246;2022-09-09T09:55:56;5.05;;;0.88;;
1753;SDS011;58380;48.312;9.246;2022-09-09T09:58:48;3.30;;;0.50;;
1753;SDS011;58380;48.312;9.246;2022-09-09T10:01:33;1.52;;;0.43;;
1753;SDS011;58380;48.312;9.246;2022-09-09T10:04:01;4.88;;;0.88;;
1753;SDS011;58380;48.312;9.246;2022-09-09T10:06:41;2.83;;;0.80;;
1753;SDS011;58380;48.312;9.246;2022-09-09T10:12:08;4.25;;;0.63;;
1753;SDS011;58380;48.312;9.246;2022-09-09T10:14:48;3.17;;;0.75;;
1753;SDS011;58380;48.312;9.246;2022-09-09T10:17:41;2.78;;;0.50;;
1753;SDS011;58380;48.312;9.246;2022-09-09T10:35:09;1.27;;;0.75;;
1753;SDS011;58380;48.312;9.246;2022-09-09T10:37:52;3.90;;;0.70;;
1753;SDS011;58380;48.312;9.246;2022-09-09T10:40:30;1.75;;;0.60;;
1753;SDS011;58380;48.312;9.246;2022-09-09T10:43:12;2.33;;;0.68;;
1753;SDS011;58380;48.312;9.246;2022-09-09T10:46:28;7.57;;;0.60;;
1753;SDS011;58380;48.312;9.246;2022-09-09T10:52:53;2.30;;;0.55;;
1753;SDS011;58380;48.312;9.246;2022-09-09T10:55:43;4.45;;;0.63;;
1753;SDS011;58380;48.312;9.246;2022-09-09T10:58:21;3.00;;;0.60;;
1753;SDS011;58380;48.312;9.246;2022-09-09T11:00:56;2.78;;;0.40;;
1753;SDS011;58380;48.312;9.246;2022-09-09T11:03:29;1.77;;;0.50;;
1753;SDS011;58380;48.312;9.246;2022-09-09T11:06:00;1.30;;;0.50;;
1753;SDS011;58380;48.312;9.246;2022-09-09T11:08:38;3.15;;;0.50;;
1753;SDS011;58380;48.312;9.246;2022-09-09T11:13:47;1.77;;;0.55;;
1753;SDS011;58380;48.312;9.246;2022-09-09T11:26:55;1.48;;;0.52;;
1753;SDS011;58380;48.312;9.246;2022-09-09T11:38:19;2.65;;;0.50;;
1753;SDS011;58380;48.312;9.246;2022-09-09T11:41:10;4.70;;;0.60;;
1753;SDS011;58380;48.312;9.246;2022-09-09T11:43:42;2.47;;;0.55;;
1753;SDS011;58380;48.312;9.246;2022-09-09T11:46:11;1.48;;;0.38;;
1753;SDS011;58380;48.312;9.246;2022-09-09T11:48:45;1.65;;;0.55;;
1753;SDS011;58380;48.312;9.246;2022-09-09T11:51:28;1.60;;;0.40;;
1753;SDS011;58380;48.312;9.246;2022-09-09T12:15:02;0.93;;;0.30;;
1753;SDS011;58380;48.312;9.246;2022-09-09T12:17:32;1.92;;;0.40;;
1753;SDS011;58380;48.312;9.246;2022-09-09T12:20:16;1.67;;;0.50;;
1753;SDS011;58380;48.312;9.246;2022-09-09T12:25:49;1.08;;;0.35;;
1753;SDS011;58380;48.312;9.246;2022-09-09T12:33:45;2.20;;;0.47;;
1753;SDS011;58380;48.312;9.246;2022-09-09T12:36:16;2.05;;;0.50;;
1753;SDS011;58380;48.312;9.246;2022-09-09T12:38:49;2.08;;;0.28;;
1753;SDS011;58380;48.312;9.246;2022-09-09T12:41:23;2.28;;;0.50;;
1753;SDS011;58380;48.312;9.246;2022-09-09T12:44:05;4.38;;;0.38;;
1753;SDS011;58380;48.312;9.246;2022-09-09T12:51:52;0.50;;;0.30;;
1753;SDS011;58380;48.312;9.246;2022-09-09T12:54:18;2.30;;;0.70;;
1753;SDS011;58380;48.312;9.246;2022-09-09T12:56:45;2.55;;;0.60;;
1753;SDS011;58380;48.312;9.246;2022-09-09T12:59:26;5.40;;;0.77;;
1753;SDS011;58380;48.312;9.246;2022-09-09T13:02:02;3.08;;;0.50;;
1753;SDS011;58380;48.312;9.246;2022-09-09T13:04:51;4.28;;;0.50;;
1753;SDS011;58380;48.312;9.246;2022-09-09T13:07:18;2.83;;;0.57;;
1753;SDS011;58380;48.312;9.246;2022-09-09T13:09:47;3.95;;;0.70;;
1753;SDS011;58380;48.312;9.246;2022-09-09T13:12:15;2.90;;;0.50;;
1753;SDS011;58380;48.312;9.246;2022-09-09T13:14:46;3.03;;;0.43;;
1753;SDS011;58380;48.312;9.246;2022-09-09T13:17:20;1.42;;;0.50;;
1753;SDS011;58380;48.312;9.246;2022-09-09T13:19:49;4.07;;;0.63;;
1753;SDS011;58380;48.312;9.246;2022-09-09T13:22:21;1.23;;;0.55;;
1753;SDS011;58380;48.312;9.246;2022-09-09T13:25:02;1.63;;;0.60;;
1753;SDS011;58380;48.312;9.246;2022-09-09T13:27:39;3.20;;;0.50;;
1753;SDS011;58380;48.312;9.246;2022-09-09T13:33:00;3.55;;;0.65;;
1753;SDS011;58380;48.312;9.246;2022-09-09T13:38:28;2.13;;;0.40;;
1753;SDS011;58380;48.312;9.246;2022-09-09T13:41:01;4.10;;;0.85;;
1753;SDS011;58380;48.312;9.246;2022-09-09T13:43:43;4.60;;;0.60;;
1753;SDS011;58380;48.312;9.246;2022-09-09T13:48:56;3.17;;;0.60;;
1753;SDS011;58380;48.312;9.246;2022-09-09T13:54:00;3.05;;;0.50;;
1753;SDS011;58380;48.312;9.246;2022-09-09T13:56:26;3.00;;;0.60;;
1753;SDS011;58380;48.312;9.246;2022-09-09T13:58:52;2.72;;;0.50;;
1753;SDS011;58380;48.312;9.246;2022-09-09T14:01:17;2.70;;;0.50;;
1753;SDS011;58380;48.312;9.246;2022-09-09T14:03:43;2.17;;;0.47;;
1753;SDS011;58380;48.312;9.246;2022-09-09T14:06:09;0.85;;;0.40;;
1753;SDS011;58380;48.312;9.246;2022-09-09T14:08:35;3.92;;;0.65;;
1753;SDS011;58380;48.312;9.246;2022-09-09T14:11:05;5.95;;;0.60;;
1753;SDS011;58380;48.312;9.246;2022-09-09T14:13:31;2.67;;;0.43;;
1753;SDS011;58380;48.312;9.246;2022-09-09T14:15:57;1.63;;;0.47;;
1753;SDS011;58380;48.312;9.246;2022-09-09T14:18:22;3.20;;;0.50;;
1753;SDS011;58380;48.312;9.246;2022-09-09T14:20:50;1.42;;;0.52;;
1753;SDS011;58380;48.312;9.246;2022-09-09T14:23:16;3.97;;;0.75;;
1753;SDS011;58380;48.312;9.246;2022-09-09T14:25:42;2.35;;;0.43;;
1753;SDS011;58380;48.312;9.246;2022-09-09T14:28:09;1.67;;;0.43;;
1753;SDS011;58380;48.312;9.246;2022-09-09T14:30:38;1.73;;;0.38;;
1753;SDS011;58380;48.312;9.246;2022-09-09T14:33:05;2.00;;;0.55;;
1753;SDS011;58380;48.312;9.246;2022-09-09T14:35:33;3.03;;;0.63;;
1753;SDS011;58380;48.312;9.246;2022-09-09T14:37:59;1.52;;;0.50;;
1753;SDS011;58380;48.312;9.246;2022-09-09T14:40:26;4.60;;;0.70;;
1753;SDS011;58380;48.312;9.246;2022-09-09T14:42:52;2.45;;;0.60;;
1753;SDS011;58380;48.312;9.246;2022-09-09T14:45:18;4.80;;;0.57;;
1753;SDS011;58380;48.312;9.246;2022-09-09T14:47:46;2.10;;;0.50;;
1753;SDS011;58380;48.312;9.246;2022-09-09T14:50:11;1.65;;;0.35;;
1753;SDS011;58380;48.312;9.246;2022-09-09T14:52:37;1.10;;;0.32;;
1753;SDS011;58380;48.312;9.246;2022-09-09T14:55:03;2.78;;;0.50;;
1753;SDS011;58380;48.312;9.246;2022-09-09T14:57:29;4.18;;;0.52;;
1753;SDS011;58380;48.312;9.246;2022-09-09T14:59:55;1.35;;;0.30;;
1753;SDS011;58380;48.312;9.246;2022-09-09T15:02:21;2.78;;;0.50;;
1753;SDS011;58380;48.312;9.246;2022-09-09T15:04:47;3.47;;;0.50;;
1753;SDS011;58380;48.312;9.246;2022-09-09T15:07:14;2.35;;;0.55;;
1753;SDS011;58380;48.312;9.246;2022-09-09T15:09:41;3.92;;;0.60;;
1753;SDS011;58380;48.312;9.246;2022-09-09T15:12:07;2.90;;;0.50;;
1753;SDS011;58380;48.312;9.246;2022-09-09T15:14:33;1.65;;;0.38;;
1753;SDS011;58380;48.312;9.246;2022-09-09T15:17:00;1.10;;;0.40;;
1753;SDS011;58380;48.312;9.246;2022-09-09T15:19:26;3.58;;;0.40;;
1753;SDS011;58380;48.312;9.246;2022-09-09T15:21:51;1.77;;;0.55;;
1753;SDS011;58380;48.312;9.246;2022-09-09T15:24:16;3.67;;;0.38;;
1753;SDS011;58380;48.312;9.246;2022-09-09T15:26:42;3.30;;;0.50;;
1753;SDS011;58380;48.312;9.246;2022-09-09T15:29:08;4.85;;;0.50;;
1753;SDS011;58380;48.312;9.246;2022-09-09T15:31:33;3.80;;;0.52;;
1753;SDS011;58380;48.312;9.246;2022-09-09T15:34:01;1.65;;;0.60;;
1753;SDS011;58380;48.312;9.246;2022-09-09T15:36:38;1.55;;;0.30;;
1753;SDS011;58380;48.312;9.246;2022-09-09T15:39:14;2.95;;;0.47;;
1753;SDS011;58380;48.312;9.246;2022-09-09T15:41:42;1.50;;;0.30;;
1753;SDS011;58380;48.312;9.246;2022-09-09T15:44:12;1.17;;;0.28;;
1753;SDS011;58380;48.312;9.246;2022-09-09T15:49:20;2.65;;;0.40;;
1753;SDS011;58380;48.312;9.246;2022-09-09T15:51:54;1.63;;;0.22;;
1753;SDS011;58380;48.312;9.246;2022-09-09T15:54:23;3.03;;;0.30;;
1753;SDS011;58380;48.312;9.246;2022-09-09T15:56:51;0.63;;;0.13;;
1753;SDS011;58380;48.312;9.246;2022-09-09T15:59:21;1.70;;;0.30;;
1753;SDS011;58380;48.312;9.246;2022-09-09T16:01:48;3.88;;;0.40;;
1753;SDS011;58380;48.312;9.246;2022-09-09T16:04:16;1.58;;;0.30;;
1753;SDS011;58380;48.312;9.246;2022-09-09T16:06:48;1.40;;;0.30;;
1753;SDS011;58380;48.312;9.246;2022-09-09T16:09:19;2.83;;;0.38;;
1753;SDS011;58380;48.312;9.246;2022-09-09T16:11:46;1.00;;;0.30;;
1753;SDS011;58380;48.312;9.246;2022-09-09T16:14:12;0.98;;;0.30;;
1753;SDS011;58380;48.312;9.246;2022-09-09T16:16:40;1.10;;;0.30;;
1753;SDS011;58380;48.312;9.246;2022-09-09T16:19:07;0.70;;;0.20;;
1753;SDS011;58380;48.312;9.246;2022-09-09T16:21:37;0.55;;;0.25;;
1753;SDS011;58380;48.312;9.246;2022-09-09T16:24:06;1.52;;;0.20;;
1753;SDS011;58380;48.312;9.246;2022-09-09T16:26:34;1.17;;;0.30;;
1753;SDS011;58380;48.312;9.246;2022-09-09T16:29:03;1.48;;;0.30;;
1753;SDS011;58380;48.312;9.246;2022-09-09T16:31:29;2.85;;;0.30;;
1753;SDS011;58380;48.312;9.246;2022-09-09T16:33:56;2.92;;;0.40;;
1753;SDS011;58380;48.312;9.246;2022-09-09T16:36:24;0.95;;;0.20;;
1753;SDS011;58380;48.312;9.246;2022-09-09T16:38:53;2.50;;;0.50;;
1753;SDS011;58380;48.312;9.246;2022-09-09T16:41:22;2.65;;;0.50;;
1753;SDS011;58380;48.312;9.246;2022-09-09T16:46:19;2.75;;;0.32;;
1753;SDS011;58380;48.312;9.246;2022-09-09T16:51:18;2.33;;;0.37;;
1753;SDS011;58380;48.312;9.246;2022-09-09T16:53:54;1.38;;;0.30;;
1753;SDS011;58380;48.312;9.246;2022-09-09T16:56:24;1.13;;;0.30;;
1753;SDS011;58380;48.312;9.246;2022-09-09T16:58:53;3.22;;;0.60;;
1753;SDS011;58380;48.312;9.246;2022-09-09T17:01:24;1.08;;;0.30;;
1753;SDS011;58380;48.312;9.246;2022-09-09T17:03:52;1.42;;;0.35;;
1753;SDS011;58380;48.312;9.246;2022-09-09T17:06:18;2.10;;;0.40;;
1753;SDS011;58380;48.312;9.246;2022-09-09T17:08:44;3.03;;;0.50;;
1753;SDS011;58380;48.312;9.246;2022-09-09T17:11:13;2.83;;;0.57;;
1753;SDS011;58380;48.312;9.246;2022-09-09T17:13:41;1.85;;;0.40;;
1753;SDS011;58380;48.312;9.246;2022-09-09T17:16:08;2.45;;;0.30;;
1753;SDS011;58380;48.312;9.246;2022-09-09T17:18:35;1.08;;;0.20;;
1753;SDS011;58380;48.312;9.246;2022-09-09T17:21:05;3.13;;;1.38;;
1753;SDS011;58380;48.312;9.246;2022-09-09T17:23:35;2.25;;;1.10;;
1753;SDS011;58380;48.312;9.246;2022-09-09T17:26:03;5.60;;;1.98;;
1753;SDS011;58380;48.312;9.246;2022-09-09T17:28:32;5.43;;;1.35;;
1753;SDS011;58380;48.312;9.246;2022-09-09T17:31:03;6.13;;;1.70;;
1753;SDS011;58380;48.312;9.246;2022-09-09T17:33:32;2.83;;;1.38;;
1753;SDS011;58380;48.312;9.246;2022-09-09T17:36:37;2.17;;;0.73;;
1753;SDS011;58380;48.312;9.246;2022-09-09T17:38:58;2.47;;;0.68;;
1753;SDS011;58380;48.312;9.246;2022-09-09T17:41:27;2.45;;;0.70;;
1753;SDS011;58380;48.312;9.246;2022-09-09T17:43:56;4.22;;;1.30;;
1753;SDS011;58380;48.312;9.246;2022-09-09T17:46:24;2.72;;;1.20;;
1753;SDS011;58380;48.312;9.246;2022-09-09T17:48:55;5.65;;;2.17;;
1753;SDS011;58380;48.312;9.246;2022-09-09T17:51:24;10.02;;;3.85;;
1753;SDS011;58380;48.312;9.246;2022-09-09T17:53:54;4.70;;;1.80;;
1753;SDS011;58380;48.312;9.246;2022-09-09T17:56:24;5.55;;;1.83;;
1753;SDS011;58380;48.312;9.246;2022-09-09T17:58:51;3.70;;;1.30;;
1753;SDS011;58380;48.312;9.246;2022-09-09T18:01:21;5.22;;;3.13;;
1753;SDS011;58380;48.312;9.246;2022-09-09T18:03:51;5.43;;;3.20;;
1753;SDS011;58380;48.312;9.246;2022-09-09T18:06:22;2.40;;;0.70;;
1753;SDS011;58380;48.312;9.246;2022-09-09T18:08:54;2.78;;;0.52;;
1753;SDS011;58380;48.312;9.246;2022-09-09T18:11:25;3.00;;;0.60;;
1753;SDS011;58380;48.312;9.246;2022-09-09T18:13:55;4.00;;;0.70;;
1753;SDS011;58380;48.312;9.246;2022-09-09T18:16:27;2.10;;;0.50;;
1753;SDS011;58380;48.312;9.246;2022-09-09T18:18:55;4.20;;;0.95;;
1753;SDS011;58380;48.312;9.246;2022-09-09T18:21:28;4.05;;;0.88;;
1753;SDS011;58380;48.312;9.246;2022-09-09T18:24:04;5.30;;;1.00;;
1753;SDS011;58380;48.312;9.246;2022-09-09T18:26:31;3.72;;;0.60;;
1753;SDS011;58380;48.312;9.246;2022-09-09T18:28:59;4.30;;;0.93;;
1753;SDS011;58380;48.312;9.246;2022-09-09T18:31:28;1.70;;;0.73;;
1753;SDS011;58380;48.312;9.246;2022-09-09T18:33:55;1.88;;;0.35;;
1753;SDS011;58380;48.312;9.246;2022-09-09T18:36:25;5.28;;;0.60;;
1753;SDS011;58380;48.312;9.246;2022-09-09T18:38:55;2.47;;;0.50;;
1753;SDS011;58380;48.312;9.246;2022-09-09T18:43:56;1.60;;;1.35;;
1753;SDS011;58380;48.312;9.246;2022-09-09T18:46:25;1.10;;;0.88;;
1753;SDS011;58380;48.312;9.246;2022-09-09T18:48:52;1.92;;;0.70;;
1753;SDS011;58380;48.312;9.246;2022-09-09T18:51:20;2.42;;;0.65;;
1753;SDS011;58380;48.312;9.246;2022-09-09T18:53:50;1.92;;;0.65;;
1753;SDS011;58380;48.312;9.246;2022-09-09T18:56:43;0.60;;;0.25;;
1753;SDS011;58380;48.312;9.246;2022-09-09T18:59:11;3.25;;;0.50;;
1753;SDS011;58380;48.312;9.246;2022-09-09T19:01:41;1.73;;;0.32;;
1753;SDS011;58380;48.312;9.246;2022-09-09T19:04:07;2.58;;;0.43;;
1753;SDS011;58380;48.312;9.246;2022-09-09T19:06:35;2.88;;;0.57;;
1753;SDS011;58380;48.312;9.246;2022-09-09T19:09:05;3.50;;;0.68;;
1753;SDS011;58380;48.312;9.246;2022-09-09T19:11:36;1.60;;;0.50;;
1753;SDS011;58380;48.312;9.246;2022-09-09T19:14:03;5.95;;;0.73;;
1753;SDS011;58380;48.312;9.246;2022-09-09T19:16:34;2.17;;;0.50;;
1753;SDS011;58380;48.312;9.246;2022-09-09T19:19:05;2.80;;;0.57;;
1753;SDS011;58380;48.312;9.246;2022-09-09T19:21:37;2.30;;;0.40;;
1753;SDS011;58380;48.312;9.246;2022-09-09T19:26:39;0.60;;;0.30;;
1753;SDS011;58380;48.312;9.246;2022-09-09T19:29:10;2.78;;;0.40;;
1753;SDS011;58380;48.312;9.246;2022-09-09T19:31:43;1.05;;;0.45;;
1753;SDS011;58380;48.312;9.246;2022-09-09T19:34:10;3.63;;;0.52;;
1753;SDS011;58380;48.312;9.246;2022-09-09T19:36:36;1.35;;;0.40;;
1753;SDS011;58380;48.312;9.246;2022-09-09T19:39:03;1.27;;;0.50;;
1753;SDS011;58380;48.312;9.246;2022-09-09T19:41:30;2.97;;;0.70;;
1753;SDS011;58380;48.312;9.246;2022-09-09T19:43:58;3.08;;;0.70;;
1753;SDS011;58380;48.312;9.246;2022-09-09T19:46:29;3.00;;;0.88;;
1753;SDS011;58380;48.312;9.246;2022-09-09T19:48:57;1.52;;;0.70;;
1753;SDS011;58380;48.312;9.246;2022-09-09T19:51:25;1.60;;;0.80;;
1753;SDS011;58380;48.312;9.246;2022-09-09T19:54:01;2.25;;;0.70;;
1753;SDS011;58380;48.312;9.246;2022-09-09T19:56:31;2.08;;;1.10;;
1753;SDS011;58380;48.312;9.246;2022-09-09T19:58:58;1.63;;;0.40;;
1753;SDS011;58380;48.312;9.246;2022-09-09T20:03:53;4.18;;;0.55;;
1753;SDS011;58380;48.312;9.246;2022-09-09T20:06:22;0.88;;;0.40;;
1753;SDS011;58380;48.312;9.246;2022-09-09T20:08:52;2.75;;;0.55;;
1753;SDS011;58380;48.312;9.246;2022-09-09T20:11:18;4.57;;;0.60;;
1753;SDS011;58380;48.312;9.246;2022-09-09T20:13:44;2.83;;;0.65;;
1753;SDS011;58380;48.312;9.246;2022-09-09T20:16:15;1.95;;;0.70;;
1753;SDS011;58380;48.312;9.246;2022-09-09T20:18:44;4.25;;;1.00;;
1753;SDS011;58380;48.312;9.246;2022-09-09T20:21:17;4.45;;;1.00;;
1753;SDS011;58380;48.312;9.246;2022-09-09T20:23:47;2.50;;;1.17;;
1753;SDS011;58380;48.312;9.246;2022-09-09T20:26:15;5.25;;;1.10;;
1753;SDS011;58380;48.312;9.246;2022-09-09T20:28:45;4.20;;;1.50;;
1753;SDS011;58380;48.312;9.246;2022-09-09T20:31:15;3.63;;;1.70;;
1753;SDS011;58380;48.312;9.246;2022-09-09T20:33:53;5.45;;;1.70;;
1753;SDS011;58380;48.312;9.246;2022-09-09T20:36:22;5.05;;;1.98;;
1753;SDS011;58380;48.312;9.246;2022-09-09T20:38:56;3.53;;;1.33;;
1753;SDS011;58380;48.312;9.246;2022-09-09T20:41:26;2.38;;;1.15;;
1753;SDS011;58380;48.312;9.246;2022-09-09T20:44:05;7.07;;;1.13;;
1753;SDS011;58380;48.312;9.246;2022-09-09T20:46:36;2.53;;;0.95;;
1753;SDS011;58380;48.312;9.246;2022-09-09T20:49:05;2.90;;;0.93;;
1753;SDS011;58380;48.312;9.246;2022-09-09T20:51:34;2.90;;;1.20;;
1753;SDS011;58380;48.312;9.246;2022-09-09T20:56:32;4.85;;;1.15;;
1753;SDS011;58380;48.312;9.246;2022-09-09T20:59:04;2.33;;;1.10;;
1753;SDS011;58380;48.312;9.246;2022-09-09T21:01:34;3.67;;;1.17;;
1753;SDS011;58380;48.312;9.246;2022-09-09T21:04:00;7.00;;;1.85;;
1753;SDS011;58380;48.312;9.246;2022-09-09T21:06:25;4.28;;;1.58;;
1753;SDS011;58380;48.312;9.246;2022-09-09T21:08:51;5.60;;;1.50;;
1753;SDS011;58380;48.312;9.246;2022-09-09T21:11:16;3.43;;;1.73;;
1753;SDS011;58380;48.312;9.246;2022-09-09T21:13:42;4.68;;;1.88;;
1753;SDS011;58380;48.312;9.246;2022-09-09T21:16:11;4.32;;;2.15;;
1753;SDS011;58380;48.312;9.246;2022-09-09T21:18:40;8.48;;;2.60;;
1753;SDS011;58380;48.312;9.246;2022-09-09T21:21:07;8.50;;;3.05;;
1753;SDS011;58380;48.312;9.246;2022-09-09T21:23:33;11.95;;;4.32;;
1753;SDS011;58380;48.312;9.246;2022-09-09T21:25:59;13.00;;;4.97;;
1753;SDS011;58380;48.312;9.246;2022-09-09T21:30:52;8.48;;;4.05;;
1753;SDS011;58380;48.312;9.246;2022-09-09T21:33:20;11.23;;;4.22;;
1753;SDS011;58380;48.312;9.246;2022-09-09T21:35:48;5.82;;;3.03;;
1753;SDS011;58380;48.312;9.246;2022-09-09T21:38:15;8.43;;;2.78;;
1753;SDS011;58380;48.312;9.246;2022-09-09T21:40:48;6.35;;;2.25;;
1753;SDS011;58380;48.312;9.246;2022-09-09T21:43:15;4.10;;;1.20;;
1753;SDS011;58380;48.312;9.246;2022-09-09T21:45:43;1.52;;;0.95;;
